Time;durP1;ratioP1;P1;durP2;ratioP2;P2;SDS_P1;SDS_P2;PMS_P1;PMS_P2;Temp;Humidity;BMP_temperature;BMP_pressure;BME280_temperature;BME280_humidity;BME280_pressure;Samples;Min_cycle;Max_cycle;Signal;HPM_P1;HPM_P2
2022/07/11 00:11:21;;;;;;;58.75;28.17;;;;;;;;;;4974450;28;20504;-91
2022/07/11 00:21:15;;;;;;;58.47;26.67;;;;;;;;;;4970827;28;20039;-91
2022/07/11 00:26:10;;;;;;;50.28;27.30;;;;;;;;;;4997805;28;20356;-89
2022/07/11 00:31:07;;;;;;;55.72;28.20;;;;;;;;;;4998423;28;20039;-90
2022/07/11 00:36:05;;;;;;;55.03;27.35;;;;;;;;;;4997648;28;20034;-90
2022/07/11 00:38:31;;;;;;;57.10;27.17;;;;;;;;;;4963571;28;20077;-90
2022/07/11 00:40:57;;;;;;;49.63;28.17;;;;;;;;;;4996515;28;20499;-90
2022/07/11 00:43:33;;;;;;;49.00;26.40;;;;;;;;;;4960734;28;20066;-92
2022/07/11 00:50:57;;;;;;;46.83;26.73;;;;;;;;;;4913740;28;20070;-89
2022/07/11 01:03:23;;;;;;;76.28;29.35;;;;;;;;;;4978626;28;20030;-89
2022/07/11 01:05:51;;;;;;;66.17;29.00;;;;;;;;;;4964088;28;20041;-91
2022/07/11 01:08:19;;;;;;;61.58;30.08;;;;;;;;;;4964338;28;20388;-91
2022/07/11 01:20:41;;;;;;;41.75;22.17;;;;;;;;;;4990945;28;20062;-94
2022/07/11 01:23:07;;;;;;;33.10;20.55;;;;;;;;;;4949792;28;20541;-92
2022/07/11 01:25:34;;;;;;;35.30;19.33;;;;;;;;;;4963013;28;20493;-93
2022/07/11 01:28:01;;;;;;;41.67;22.17;;;;;;;;;;4962204;28;20527;-91
2022/07/11 01:30:29;;;;;;;41.22;21.40;;;;;;;;;;4946122;28;20039;-92
2022/07/11 01:35:25;;;;;;;40.88;21.17;;;;;;;;;;4999156;28;20455;-91
2022/07/11 01:42:49;;;;;;;41.80;22.30;;;;;;;;;;5000394;28;20484;-91
2022/07/11 01:45:16;;;;;;;46.38;22.45;;;;;;;;;;4950528;28;20141;-91
2022/07/11 01:47:42;;;;;;;198.88;27.10;;;;;;;;;;4964209;28;20480;-91
2022/07/11 01:50:09;;;;;;;150.80;26.63;;;;;;;;;;4929701;28;20030;-92
2022/07/11 01:57:33;;;;;;;42.55;22.85;;;;;;;;;;4949569;28;20038;-91
2022/07/11 02:05:03;;;;;;;40.90;20.17;;;;;;;;;;4999691;28;20038;-92
2022/07/11 02:10:23;;;;;;;39.10;21.25;;;;;;;;;;4964868;28;20030;-96
2022/07/11 02:15:17;;;;;;;45.05;19.67;;;;;;;;;;5002051;28;20037;-90
2022/07/11 02:17:44;;;;;;;48.50;21.27;;;;;;;;;;4958785;28;20038;-91
2022/07/11 02:20:12;;;;;;;31.25;20.13;;;;;;;;;;4981162;28;20058;-90
2022/07/11 02:22:41;;;;;;;33.17;19.45;;;;;;;;;;4961794;28;20042;-91
2022/07/11 02:25:08;;;;;;;32.50;18.80;;;;;;;;;;4942585;28;20058;-91
2022/07/11 02:30:03;;;;;;;42.88;20.02;;;;;;;;;;5000135;28;20491;-90
2022/07/11 02:32:54;;;;;;;40.78;21.08;;;;;;;;;;4976866;28;20098;-90
2022/07/11 02:35:21;;;;;;;35.53;19.58;;;;;;;;;;4978740;28;20056;-91
2022/07/11 02:40:16;;;;;;;33.75;19.42;;;;;;;;;;5002661;28;20424;-91
2022/07/11 02:42:42;;;;;;;35.15;19.65;;;;;;;;;;4949342;28;20064;-90
2022/07/11 02:50:08;;;;;;;40.55;21.70;;;;;;;;;;4997492;28;20065;-92
2022/07/11 02:55:13;;;;;;;42.60;19.88;;;;;;;;;;4995148;28;20038;-92
2022/07/11 03:00:09;;;;;;;38.50;21.10;;;;;;;;;;4981227;28;20042;-91
2022/07/11 03:05:04;;;;;;;40.65;22.85;;;;;;;;;;4994278;28;20049;-94
2022/07/11 03:07:30;;;;;;;44.17;23.70;;;;;;;;;;4944749;28;20045;-90
2022/07/11 03:09:57;;;;;;;41.25;23.60;;;;;;;;;;4944916;28;20046;-90
2022/07/11 03:12:23;;;;;;;59.90;24.80;;;;;;;;;;4946609;28;20085;-90
2022/07/11 03:14:49;;;;;;;42.70;25.17;;;;;;;;;;4960720;28;20046;-90
2022/07/11 03:17:16;;;;;;;48.17;25.67;;;;;;;;;;4994871;28;20285;-90
2022/07/11 03:19:43;;;;;;;35.40;24.25;;;;;;;;;;4964090;28;20050;-90
2022/07/11 03:24:37;;;;;;;36.72;23.20;;;;;;;;;;4991032;28;19913;-90
2022/07/11 03:27:04;;;;;;;42.17;24.83;;;;;;;;;;4965030;28;20035;-94
2022/07/11 03:31:59;;;;;;;42.95;24.77;;;;;;;;;;4997981;28;20045;-91
2022/07/11 03:36:54;;;;;;;42.78;24.92;;;;;;;;;;4997280;28;20025;-92
2022/07/11 03:39:23;;;;;;;45.47;24.73;;;;;;;;;;4958706;28;20512;-90
2022/07/11 03:41:49;;;;;;;40.97;23.65;;;;;;;;;;4926934;28;20058;-90
2022/07/11 03:44:15;;;;;;;41.77;24.37;;;;;;;;;;4978707;28;20049;-89
2022/07/11 03:46:41;;;;;;;37.97;22.93;;;;;;;;;;4962300;28;20069;-91
2022/07/11 03:49:08;;;;;;;64.83;26.07;;;;;;;;;;4959134;28;20046;-90
2022/07/11 03:51:34;;;;;;;57.38;25.48;;;;;;;;;;4961164;28;20034;-95
2022/07/11 03:54:00;;;;;;;41.30;22.42;;;;;;;;;;4946797;28;20050;-92
2022/07/11 03:56:28;;;;;;;49.20;23.55;;;;;;;;;;4946758;28;20500;-90
2022/07/11 03:58:57;;;;;;;44.58;25.45;;;;;;;;;;4962248;28;20093;-91
2022/07/11 04:01:23;;;;;;;57.88;26.05;;;;;;;;;;4942004;28;20047;-91
2022/07/11 04:03:51;;;;;;;46.38;24.40;;;;;;;;;;4943966;28;20133;-96
2022/07/11 04:06:17;;;;;;;37.03;21.98;;;;;;;;;;4977193;28;20507;-92
2022/07/11 04:08:43;;;;;;;45.60;23.63;;;;;;;;;;4960731;28;20027;-92
2022/07/11 04:11:09;;;;;;;50.63;23.10;;;;;;;;;;4962374;28;20027;-95
2022/07/11 04:13:35;;;;;;;41.53;20.87;;;;;;;;;;4977288;28;20041;-91
2022/07/11 04:16:01;;;;;;;30.58;20.27;;;;;;;;;;4962230;28;20281;-91
2022/07/11 04:18:26;;;;;;;30.17;19.93;;;;;;;;;;4982231;28;20096;-93
2022/07/11 04:20:52;;;;;;;45.27;21.97;;;;;;;;;;4965586;28;20077;-91
2022/07/11 04:23:18;;;;;;;36.80;20.10;;;;;;;;;;4961991;28;20278;-96
2022/07/11 04:25:45;;;;;;;46.57;21.80;;;;;;;;;;4947925;28;20030;-90
2022/07/11 04:28:11;;;;;;;34.75;20.33;;;;;;;;;;4979369;28;20030;-90
2022/07/11 04:30:38;;;;;;;39.80;22.47;;;;;;;;;;4950412;28;20380;-91
2022/07/11 04:33:04;;;;;;;45.63;20.08;;;;;;;;;;4960595;28;20038;-90
2022/07/11 04:35:31;;;;;;;33.97;19.63;;;;;;;;;;4965381;28;20507;-91
2022/07/11 04:37:57;;;;;;;48.70;21.15;;;;;;;;;;4948218;28;20332;-90
2022/07/11 04:40:23;;;;;;;39.72;21.83;;;;;;;;;;4960970;28;20082;-91
2022/07/11 04:42:50;;;;;;;43.58;22.10;;;;;;;;;;4974155;28;20486;-91
2022/07/11 04:45:16;;;;;;;39.25;21.50;;;;;;;;;;4965181;28;20080;-91
2022/07/11 04:47:42;;;;;;;35.22;20.38;;;;;;;;;;4932711;28;20522;-89
2022/07/11 04:50:08;;;;;;;46.22;21.33;;;;;;;;;;4984032;28;20034;-92
2022/07/11 04:52:34;;;;;;;38.67;21.30;;;;;;;;;;4963817;28;20433;-96
2022/07/11 04:55:01;;;;;;;32.28;21.50;;;;;;;;;;4978814;28;20062;-91
2022/07/11 04:57:30;;;;;;;41.75;20.73;;;;;;;;;;4997708;28;20049;-88
2022/07/11 04:59:56;;;;;;;35.72;20.73;;;;;;;;;;4998197;28;20046;-88
2022/07/11 05:02:22;;;;;;;35.85;21.08;;;;;;;;;;4984590;28;20034;-88
2022/07/11 05:04:48;;;;;;;40.93;22.03;;;;;;;;;;4938794;28;20046;-90
2022/07/11 05:07:14;;;;;;;37.57;20.77;;;;;;;;;;4981526;28;20082;-88
2022/07/11 05:09:40;;;;;;;37.17;22.55;;;;;;;;;;4980069;28;20034;-89
2022/07/11 05:12:07;;;;;;;36.43;21.33;;;;;;;;;;4982280;28;20074;-88
2022/07/11 05:14:32;;;;;;;41.45;21.25;;;;;;;;;;4998784;28;20380;-89
2022/07/11 05:16:58;;;;;;;42.00;21.53;;;;;;;;;;4981189;28;20073;-88
2022/07/11 05:19:24;;;;;;;38.27;21.60;;;;;;;;;;4979450;28;20786;-89
2022/07/11 05:21:50;;;;;;;40.83;21.95;;;;;;;;;;4985261;28;20094;-89
2022/07/11 05:24:18;;;;;;;44.57;20.60;;;;;;;;;;4965133;28;20097;-87
2022/07/11 05:26:47;;;;;;;47.38;22.55;;;;;;;;;;4978218;28;20378;-89
2022/07/11 05:29:14;;;;;;;56.85;22.25;;;;;;;;;;4932172;28;20085;-91
2022/07/11 05:31:40;;;;;;;55.00;21.83;;;;;;;;;;4960216;28;20038;-91
2022/07/11 05:34:28;;;;;;;45.40;22.65;;;;;;;;;;5000259;28;20030;-92
2022/07/11 05:37:01;;;;;;;47.53;22.40;;;;;;;;;;5002681;28;20010;-88
2022/07/11 05:39:37;;;;;;;;;;;;;;;;;;5018337;28;20105;-89
2022/07/11 05:42:03;;;;;;;50.25;22.42;;;;;;;;;;4972699;28;20374;-95
2022/07/11 05:44:31;;;;;;;41.88;21.60;;;;;;;;;;4980799;28;20535;-94
2022/07/11 05:47:01;;;;;;;44.83;21.20;;;;;;;;;;4990187;28;20038;-88
2022/07/11 05:49:27;;;;;;;55.10;22.52;;;;;;;;;;4946286;28;20412;-90
2022/07/11 05:51:53;;;;;;;53.25;21.65;;;;;;;;;;4967557;28;20077;-88
2022/07/11 05:54:18;;;;;;;50.80;23.30;;;;;;;;;;4930301;28;20396;-88
2022/07/11 05:56:45;;;;;;;48.40;22.42;;;;;;;;;;4962516;28;20034;-89
2022/07/11 05:59:15;;;;;;;43.75;21.38;;;;;;;;;;4968387;28;20129;-95
2022/07/11 06:01:41;;;;;;;43.88;20.65;;;;;;;;;;4963092;28;20504;-89
2022/07/11 06:04:07;;;;;;;48.53;20.93;;;;;;;;;;4959221;28;20041;-94
2022/07/11 06:06:33;;;;;;;;;;;;;;;;;;4953466;28;20286;-92
2022/07/11 06:08:59;;;;;;;45.92;20.10;;;;;;;;;;4943506;28;19914;-90
2022/07/11 06:11:25;;;;;;;58.92;20.90;;;;;;;;;;4927259;28;20030;-91
2022/07/11 06:13:53;;;;;;;55.75;20.88;;;;;;;;;;4959440;28;20030;-91
2022/07/11 06:16:20;;;;;;;42.55;20.35;;;;;;;;;;4927650;28;20045;-94
2022/07/11 06:18:45;;;;;;;65.75;21.33;;;;;;;;;;4925898;28;20027;-91
2022/07/11 06:21:12;;;;;;;76.20;21.27;;;;;;;;;;4944514;28;20053;-91
2022/07/11 06:23:38;;;;;;;52.25;20.45;;;;;;;;;;4931068;28;20100;-91
2022/07/11 06:26:04;;;;;;;37.88;21.05;;;;;;;;;;4932252;28;20074;-93
2022/07/11 06:28:30;;;;;;;60.50;21.45;;;;;;;;;;4938521;29;20043;-90
2022/07/11 06:30:55;;;;;;;42.63;19.33;;;;;;;;;;4959952;28;20058;-89
2022/07/11 06:33:21;;;;;;;37.58;19.88;;;;;;;;;;4981740;28;20035;-95
2022/07/11 06:35:48;;;;;;;40.45;19.77;;;;;;;;;;4947252;28;20046;-93
2022/07/11 06:38:15;;;;;;;38.95;18.73;;;;;;;;;;4958426;28;20070;-91
2022/07/11 06:40:42;;;;;;;45.78;19.55;;;;;;;;;;4975404;28;20094;-92
2022/07/11 06:43:09;;;;;;;61.90;19.45;;;;;;;;;;4958726;28;20037;-93
2022/07/11 06:45:35;;;;;;;48.45;20.88;;;;;;;;;;4968885;28;20031;-89
2022/07/11 06:48:02;;;;;;;59.67;22.15;;;;;;;;;;4998061;28;20387;-89
2022/07/11 06:50:28;;;;;;;55.05;20.13;;;;;;;;;;4949549;28;20712;-87
2022/07/11 06:52:54;;;;;;;49.20;22.00;;;;;;;;;;4978258;28;20034;-93
2022/07/11 06:55:20;;;;;;;46.38;21.40;;;;;;;;;;4958975;28;20476;-87
2022/07/11 06:57:46;;;;;;;37.47;20.75;;;;;;;;;;4979214;28;20044;-95
2022/07/11 07:00:14;;;;;;;53.70;19.92;;;;;;;;;;4993793;28;20101;-93
2022/07/11 07:02:40;;;;;;;52.47;19.38;;;;;;;;;;4971653;28;20043;-90
2022/07/11 07:05:06;;;;;;;47.17;20.77;;;;;;;;;;4979336;28;20037;-95
2022/07/11 07:07:33;;;;;;;46.53;20.45;;;;;;;;;;4966823;28;20039;-93
2022/07/11 07:09:59;;;;;;;44.33;19.63;;;;;;;;;;4964645;28;20034;-92
2022/07/11 07:12:28;;;;;;;51.20;20.20;;;;;;;;;;4956892;28;20045;-92
2022/07/11 07:14:55;;;;;;;52.80;20.67;;;;;;;;;;4962228;28;20503;-93
2022/07/11 07:17:21;;;;;;;61.15;21.63;;;;;;;;;;4995473;28;20117;-89
2022/07/11 07:19:47;;;;;;;44.33;21.17;;;;;;;;;;4994794;28;20244;-95
2022/07/11 07:22:16;;;;;;;42.30;20.67;;;;;;;;;;4990852;28;20042;-91
2022/07/11 07:24:43;;;;;;;34.58;19.60;;;;;;;;;;4968398;28;20037;-92
2022/07/11 07:27:09;;;;;;;44.97;19.67;;;;;;;;;;4959751;28;20061;-94
2022/07/11 07:29:35;;;;;;;43.50;20.05;;;;;;;;;;4962650;28;20026;-89
2022/07/11 07:32:01;;;;;;;33.72;21.25;;;;;;;;;;4978769;28;20113;-89
2022/07/11 07:34:27;;;;;;;42.75;20.92;;;;;;;;;;4972504;28;20117;-93
2022/07/11 07:36:54;;;;;;;38.83;20.05;;;;;;;;;;4962849;28;20039;-95
2022/07/11 07:39:20;;;;;;;45.22;19.40;;;;;;;;;;4963835;28;20141;-94
2022/07/11 07:41:46;;;;;;;43.63;19.95;;;;;;;;;;4963482;28;20060;-96
2022/07/11 07:44:12;;;;;;;42.15;19.10;;;;;;;;;;4938230;28;20094;-95
2022/07/11 07:46:42;;;;;;;45.47;28.85;;;;;;;;;;4960410;28;20400;-89
2022/07/11 07:49:09;;;;;;;44.58;20.38;;;;;;;;;;4932439;29;20126;-93
2022/07/11 07:51:36;;;;;;;47.50;21.10;;;;;;;;;;4947752;28;20094;-94
2022/07/11 07:54:02;;;;;;;54.97;20.83;;;;;;;;;;4980764;28;20662;-89
2022/07/11 07:56:29;;;;;;;34.55;20.02;;;;;;;;;;4982103;28;20045;-90
2022/07/11 07:58:56;;;;;;;39.90;19.98;;;;;;;;;;4975566;28;20037;-94
2022/07/11 08:01:35;;;;;;;44.45;19.27;;;;;;;;;;4954929;28;20123;-92
2022/07/11 08:04:04;;;;;;;42.33;19.88;;;;;;;;;;4945228;28;20564;-94
2022/07/11 08:06:32;;;;;;;75.10;20.92;;;;;;;;;;4979952;28;20030;-96
2022/07/11 08:08:59;;;;;;;49.33;18.88;;;;;;;;;;4968407;28;20064;-94
2022/07/11 08:11:47;;;;;;;36.88;18.75;;;;;;;;;;4950306;28;20047;-93
2022/07/11 08:14:15;;;;;;;36.03;17.83;;;;;;;;;;4962213;28;20452;-96
2022/07/11 08:17:07;;;;;;;56.80;21.42;;;;;;;;;;4982544;28;20030;-96
2022/07/11 08:19:32;;;;;;;53.50;21.02;;;;;;;;;;4939533;28;20046;-96
2022/07/11 08:22:00;;;;;;;54.45;18.67;;;;;;;;;;4944097;28;20122;-92
2022/07/11 08:24:26;;;;;;;47.67;21.25;;;;;;;;;;4954613;28;20031;-93
2022/07/11 08:26:53;;;;;;;59.13;21.25;;;;;;;;;;4948577;28;20454;-90
2022/07/11 08:29:18;;;;;;;46.30;22.35;;;;;;;;;;4959517;28;20062;-94
2022/07/11 08:31:48;;;;;;;47.38;18.88;;;;;;;;;;4944922;28;20053;-96
2022/07/11 08:34:17;;;;;;;42.70;21.15;;;;;;;;;;4964281;28;20038;-92
2022/07/11 08:36:43;;;;;;;53.78;19.55;;;;;;;;;;4968105;28;20038;-89
2022/07/11 08:39:10;;;;;;;50.10;19.60;;;;;;;;;;4960483;28;20051;-90
2022/07/11 08:41:40;;;;;;;39.53;19.05;;;;;;;;;;4956641;28;20037;-92
2022/07/11 08:44:11;;;;;;;46.95;20.08;;;;;;;;;;4960867;28;20026;-92
2022/07/11 08:46:40;;;;;;;47.17;20.42;;;;;;;;;;4961365;28;20070;-91
2022/07/11 08:49:06;;;;;;;47.65;25.00;;;;;;;;;;4951078;28;20035;-91
2022/07/11 08:51:33;;;;;;;46.40;18.52;;;;;;;;;;4989453;28;20049;-93
2022/07/11 08:54:00;;;;;;;35.60;18.17;;;;;;;;;;4991819;28;20037;-88
2022/07/11 08:56:27;;;;;;;49.25;19.65;;;;;;;;;;4994207;28;20049;-88
2022/07/11 08:59:00;;;;;;;45.55;19.35;;;;;;;;;;4944300;28;20435;-91
2022/07/11 09:01:34;;;;;;;44.00;19.20;;;;;;;;;;4933780;28;20057;-92
2022/07/11 09:04:16;;;;;;;53.97;21.50;;;;;;;;;;4998914;28;20042;-95
2022/07/11 09:06:42;;;;;;;74.63;22.10;;;;;;;;;;4980779;28;20042;-88
2022/07/11 09:09:08;;;;;;;64.20;22.80;;;;;;;;;;4980650;28;20053;-91
2022/07/11 09:11:51;;;;;;;42.67;20.85;;;;;;;;;;4966087;28;20053;-91
2022/07/11 09:14:36;;;;;;;55.08;20.98;;;;;;;;;;4962548;28;20030;-88
2022/07/11 09:17:05;;;;;;;67.25;20.73;;;;;;;;;;4987952;28;20038;-86
2022/07/11 09:19:39;;;;;;;44.08;19.33;;;;;;;;;;4979742;28;20057;-92
2022/07/11 09:25:31;;;;;;;45.85;21.45;;;;;;;;;;4988707;28;20006;-89
2022/07/11 09:28:23;;;;;;;48.70;20.35;;;;;;;;;;5005409;28;20022;-96
2022/07/11 09:30:59;;;;;;;62.30;20.13;;;;;;;;;;4989352;28;20101;-95
2022/07/11 09:33:26;;;;;;;36.35;18.13;;;;;;;;;;4982772;28;20278;-87
2022/07/11 09:35:55;;;;;;;36.65;19.42;;;;;;;;;;4959936;28;20038;-91
2022/07/11 09:38:24;;;;;;;46.75;20.75;;;;;;;;;;4936271;28;20125;-89
2022/07/11 09:40:55;;;;;;;49.38;17.17;;;;;;;;;;4965674;28;20043;-91
2022/07/11 09:43:25;;;;;;;51.20;16.85;;;;;;;;;;4976594;28;20034;-91
2022/07/11 09:45:51;;;;;;;52.88;17.33;;;;;;;;;;4990892;28;20124;-88
2022/07/11 09:48:17;;;;;;;48.30;17.90;;;;;;;;;;4970044;28;20073;-89
2022/07/11 09:50:56;;;;;;;44.80;19.48;;;;;;;;;;5001512;28;20049;-95
2022/07/11 09:53:22;;;;;;;54.00;18.40;;;;;;;;;;4970584;28;20038;-92
2022/07/11 09:55:48;;;;;;;48.88;17.33;;;;;;;;;;4981407;28;20049;-91
2022/07/11 09:58:15;;;;;;;43.03;16.98;;;;;;;;;;4966085;28;20045;-87
2022/07/11 10:00:41;;;;;;;36.83;14.98;;;;;;;;;;4992163;28;20073;-89
2022/07/11 10:03:08;;;;;;;34.75;16.02;;;;;;;;;;4984175;28;20070;-90
2022/07/11 10:05:34;;;;;;;51.92;14.90;;;;;;;;;;4995198;28;20120;-87
2022/07/11 10:08:00;;;;;;;;;;;;;;;;;;4960392;28;20185;-87
2022/07/11 10:10:29;;;;;;;39.90;17.75;;;;;;;;;;4962966;28;19913;-91
2022/07/11 10:13:02;;;;;;;36.92;16.73;;;;;;;;;;4965581;28;20491;-88
2022/07/11 10:15:35;;;;;;;55.47;21.30;;;;;;;;;;4948136;28;20586;-94
2022/07/11 10:18:15;;;;;;;34.95;17.48;;;;;;;;;;4962460;28;20520;-92
2022/07/11 10:20:45;;;;;;;67.78;17.85;;;;;;;;;;4993895;28;20046;-88
2022/07/11 10:23:14;;;;;;;81.78;17.13;;;;;;;;;;4985897;28;20034;-87
2022/07/11 10:25:40;;;;;;;41.58;15.35;;;;;;;;;;4991690;28;20096;-88
2022/07/11 10:28:12;;;;;;;39.75;15.90;;;;;;;;;;4965445;28;20058;-91
2022/07/11 10:30:46;;;;;;;45.17;15.52;;;;;;;;;;4983409;28;20100;-88
2022/07/11 10:33:13;;;;;;;47.30;16.42;;;;;;;;;;4968837;28;20093;-88
2022/07/11 10:35:40;;;;;;;40.60;18.08;;;;;;;;;;4956618;28;20039;-89
2022/07/11 10:38:06;;;;;;;82.47;36.92;;;;;;;;;;4975342;28;20492;-86
2022/07/11 10:40:53;;;;;;;58.20;29.55;;;;;;;;;;4975758;28;20054;-88
2022/07/11 10:43:22;;;;;;;47.08;21.38;;;;;;;;;;4988412;28;20507;-88
2022/07/11 10:45:54;;;;;;;40.53;18.95;;;;;;;;;;4993636;28;20523;-90
2022/07/11 10:48:20;;;;;;;29.52;16.98;;;;;;;;;;4997009;28;20030;-92
2022/07/11 10:50:46;;;;;;;27.17;16.38;;;;;;;;;;4959653;28;20031;-87
2022/07/11 10:53:22;;;;;;;36.90;16.27;;;;;;;;;;4965389;28;20037;-92
2022/07/11 10:55:53;;;;;;;37.97;15.68;;;;;;;;;;4956992;28;20038;-89
2022/07/11 10:58:25;;;;;;;30.73;16.15;;;;;;;;;;4968995;28;20122;-88
2022/07/11 11:01:12;;;;;;;31.17;16.15;;;;;;;;;;4970713;28;20061;-88
2022/07/11 11:03:39;;;;;;;49.30;16.52;;;;;;;;;;4978789;28;20039;-93
2022/07/11 11:06:06;;;;;;;28.85;16.45;;;;;;;;;;4948388;28;20104;-91
2022/07/11 11:08:42;;;;;;;45.38;15.68;;;;;;;;;;4963674;28;20026;-91
2022/07/11 11:11:23;;;;;;;49.05;15.50;;;;;;;;;;4984267;28;20049;-92
2022/07/11 11:14:08;;;;;;;50.75;17.27;;;;;;;;;;5002248;28;20034;-91
2022/07/11 11:16:34;;;;;;;32.30;14.13;;;;;;;;;;4968963;28;20042;-91
2022/07/11 11:19:00;;;;;;;30.63;14.50;;;;;;;;;;4978313;28;20037;-91
2022/07/11 11:21:30;;;;;;;50.58;18.35;;;;;;;;;;4947566;28;20101;-88
2022/07/11 11:24:00;;;;;;;29.00;15.00;;;;;;;;;;4982802;28;20022;-90
2022/07/11 11:26:43;;;;;;;40.90;15.43;;;;;;;;;;4967393;28;20164;-92
2022/07/11 11:29:11;;;;;;;39.15;15.90;;;;;;;;;;4958020;28;20080;-92
2022/07/11 11:31:37;;;;;;;44.40;14.95;;;;;;;;;;4945980;28;20041;-91
2022/07/11 11:34:04;;;;;;;47.92;15.43;;;;;;;;;;4964019;28;20126;-91
2022/07/11 11:36:30;;;;;;;61.47;16.42;;;;;;;;;;4964874;28;20042;-90
2022/07/11 11:38:56;;;;;;;54.95;16.02;;;;;;;;;;4961118;28;20042;-93
2022/07/11 11:41:25;;;;;;;41.50;13.88;;;;;;;;;;4943174;28;20481;-89
2022/07/11 11:43:52;;;;;;;53.25;15.30;;;;;;;;;;4925003;29;20036;-93
2022/07/11 11:46:18;;;;;;;44.75;15.23;;;;;;;;;;4972484;28;20058;-89
2022/07/11 11:48:46;;;;;;;36.90;15.25;;;;;;;;;;4949751;28;20488;-91
2022/07/11 11:51:16;;;;;;;74.22;30.48;;;;;;;;;;4972260;28;20043;-89
2022/07/11 11:53:47;;;;;;;43.45;15.20;;;;;;;;;;4941159;28;20042;-89
2022/07/11 11:56:13;;;;;;;43.10;15.85;;;;;;;;;;4954165;29;20456;-93
2022/07/11 11:59:00;;;;;;;55.17;16.45;;;;;;;;;;4954463;29;20042;-91
2022/07/11 12:01:28;;;;;;;35.95;15.15;;;;;;;;;;4946049;28;20058;-91
2022/07/11 12:04:05;;;;;;;37.42;14.32;;;;;;;;;;4975303;28;20042;-92
2022/07/11 12:06:33;;;;;;;47.70;14.60;;;;;;;;;;4975641;28;20174;-89
2022/07/11 12:09:03;;;;;;;45.83;14.73;;;;;;;;;;4958684;28;20034;-88
2022/07/11 12:11:29;;;;;;;39.63;14.13;;;;;;;;;;4957616;28;20134;-93
2022/07/11 12:14:00;;;;;;;43.08;13.20;;;;;;;;;;4975809;28;20027;-88
2022/07/11 12:16:43;;;;;;;39.92;12.80;;;;;;;;;;4987175;28;20094;-87
2022/07/11 12:19:12;;;;;;;52.67;15.02;;;;;;;;;;4981531;28;20043;-88
2022/07/11 12:21:41;;;;;;;54.60;12.95;;;;;;;;;;4981443;28;20082;-88
2022/07/11 12:24:30;;;;;;;36.33;13.50;;;;;;;;;;4975753;28;20050;-87
2022/07/11 12:26:57;;;;;;;43.40;14.20;;;;;;;;;;4975351;28;20126;-90
2022/07/11 12:29:24;;;;;;;47.15;14.30;;;;;;;;;;4964258;28;20125;-88
2022/07/11 12:32:10;;;;;;;47.17;13.55;;;;;;;;;;4962959;28;20049;-91
2022/07/11 12:34:43;;;;;;;49.58;13.10;;;;;;;;;;4948818;28;20054;-93
2022/07/11 12:37:18;;;;;;;33.17;13.65;;;;;;;;;;4960788;28;20063;-90
2022/07/11 12:40:00;;;;;;;40.95;13.77;;;;;;;;;;4948666;28;20046;-88
2022/07/11 12:42:46;;;;;;;45.33;13.93;;;;;;;;;;4953073;29;20054;-89
2022/07/11 12:45:12;;;;;;;48.38;14.15;;;;;;;;;;4885462;29;20044;-88
2022/07/11 12:47:45;;;;;;;43.95;13.30;;;;;;;;;;4889651;29;20050;-87
2022/07/11 12:50:17;;;;;;;45.53;13.05;;;;;;;;;;4886072;29;20175;-88
2022/07/11 12:52:45;;;;;;;40.03;14.25;;;;;;;;;;4884967;29;20080;-88
2022/07/11 12:55:19;;;;;;;35.90;13.55;;;;;;;;;;4880343;29;20040;-88
2022/07/11 12:57:59;;;;;;;40.03;12.85;;;;;;;;;;4873602;29;20144;-90
2022/07/11 13:00:26;;;;;;;48.30;13.15;;;;;;;;;;4884241;29;20140;-86
2022/07/11 13:02:53;;;;;;;47.67;13.13;;;;;;;;;;4899301;29;20083;-92
2022/07/11 13:05:19;;;;;;;;;;;;;;;;;;4884523;29;20040;-91
2022/07/11 13:10:55;;;;;;;53.10;13.13;;;;;;;;;;4873735;29;20044;-87
2022/07/11 13:13:24;;;;;;;42.40;12.82;;;;;;;;;;4870256;29;20041;-89
2022/07/11 13:15:51;;;;;;;42.55;13.43;;;;;;;;;;4884552;29;20176;-91
2022/07/11 13:18:19;;;;;;;75.10;14.57;;;;;;;;;;4861027;29;20037;-89
2022/07/11 13:20:45;;;;;;;43.40;12.95;;;;;;;;;;4861461;29;20171;-88
2022/07/11 13:23:11;;;;;;;36.50;13.30;;;;;;;;;;4879473;29;20469;-87
2022/07/11 13:25:37;;;;;;;;;;;;;;;;;;4935524;29;20414;-94
2022/07/11 13:28:03;;;;;;;38.05;13.25;;;;;;;;;;4909291;29;19915;-89
2022/07/11 13:30:32;;;;;;;42.08;13.77;;;;;;;;;;4940850;29;20059;-90
2022/07/11 13:32:59;;;;;;;44.35;14.52;;;;;;;;;;4909978;29;20051;-91
2022/07/11 13:35:26;;;;;;;67.50;14.18;;;;;;;;;;4926800;29;20456;-88
2022/07/11 13:37:53;;;;;;;32.03;12.93;;;;;;;;;;4932004;29;20040;-88
2022/07/11 13:40:21;;;;;;;47.88;14.80;;;;;;;;;;4910658;29;20066;-93
2022/07/11 13:42:48;;;;;;;36.90;13.40;;;;;;;;;;4923689;29;20046;-91
2022/07/11 13:45:15;;;;;;;35.75;13.20;;;;;;;;;;4909757;29;20040;-94
2022/07/11 13:47:41;;;;;;;70.68;15.02;;;;;;;;;;4942019;29;20031;-90
2022/07/11 13:50:09;;;;;;;74.22;15.20;;;;;;;;;;4907797;29;20098;-88
2022/07/11 13:52:35;;;;;;;51.83;15.43;;;;;;;;;;4904254;29;20126;-89
2022/07/11 13:55:01;;;;;;;;;;;;;;;;;;4931467;28;20038;-88
2022/07/11 13:57:29;;;;;;;40.67;13.15;;;;;;;;;;4988760;28;19941;-89
2022/07/11 13:59:56;;;;;;;24.85;11.90;;;;;;;;;;4944161;28;20039;-89
2022/07/11 14:02:24;;;;;;;42.70;12.15;;;;;;;;;;4971468;28;20050;-89
2022/07/11 14:04:50;;;;;;;41.75;12.90;;;;;;;;;;4942232;28;20452;-89
2022/07/11 14:07:18;;;;;;;22.75;11.20;;;;;;;;;;4969849;28;20037;-89
2022/07/11 14:09:46;;;;;;;24.05;11.63;;;;;;;;;;4995415;28;20069;-84
2022/07/11 14:12:12;;;;;;;37.25;12.95;;;;;;;;;;4996714;28;20488;-83
2022/07/11 14:14:38;;;;;;;48.20;13.60;;;;;;;;;;4996455;28;20034;-85
2022/07/11 14:17:05;;;;;;;54.45;12.38;;;;;;;;;;4996942;28;20126;-87
2022/07/11 14:19:37;;;;;;;47.38;12.05;;;;;;;;;;4974873;28;20034;-86
2022/07/11 14:22:06;;;;;;;40.72;11.43;;;;;;;;;;4961370;28;20073;-84
2022/07/11 14:24:33;;;;;;;27.60;11.57;;;;;;;;;;5001143;28;20041;-86
2022/07/11 14:26:59;;;;;;;40.70;12.32;;;;;;;;;;4997417;28;20042;-84
2022/07/11 14:29:24;;;;;;;;;;;;;;;;;;5016425;28;20077;-85
2022/07/11 14:31:54;;;;;;;37.85;12.27;;;;;;;;;;4980246;28;19917;-85
2022/07/11 14:34:23;;;;;;;31.13;11.90;;;;;;;;;;4996213;28;20100;-86
2022/07/11 14:36:49;;;;;;;42.83;12.07;;;;;;;;;;4978297;28;20100;-89
2022/07/11 14:39:15;;;;;;;37.30;11.70;;;;;;;;;;4983967;28;20511;-87
2022/07/11 14:41:42;;;;;;;38.20;12.25;;;;;;;;;;4979691;28;20078;-86
2022/07/11 14:44:14;;;;;;;33.38;11.70;;;;;;;;;;4979930;28;20008;-86
2022/07/11 14:46:41;;;;;;;28.08;11.10;;;;;;;;;;4999568;28;20066;-87
2022/07/11 14:49:08;;;;;;;47.90;13.65;;;;;;;;;;5001032;28;20042;-86
2022/07/11 14:51:59;;;;;;;30.38;11.88;;;;;;;;;;4964759;28;20121;-86
2022/07/11 14:54:26;;;;;;;40.55;13.07;;;;;;;;;;4958913;28;20030;-87
2022/07/11 14:56:54;;;;;;;41.75;12.05;;;;;;;;;;4961244;28;20060;-87
2022/07/11 14:59:20;;;;;;;25.73;12.68;;;;;;;;;;4958387;28;20039;-88
2022/07/11 15:01:47;;;;;;;43.72;18.27;;;;;;;;;;4963961;28;20080;-89
2022/07/11 15:04:13;;;;;;;59.85;13.73;;;;;;;;;;4959919;28;20416;-89
2022/07/11 15:12:28;;;;;;;36.10;11.52;;;;;;;;;;4980715;28;20416;-95
2022/07/11 15:14:54;;;;;;;20.75;11.25;;;;;;;;;;4981753;28;20057;-90
2022/07/11 15:17:21;;;;;;;37.35;13.75;;;;;;;;;;4952557;28;20036;-89
2022/07/11 15:19:49;;;;;;;41.70;13.57;;;;;;;;;;4987564;28;20049;-90
2022/07/11 15:22:15;;;;;;;;;;;;;;;;;;4983875;28;20041;-89
2022/07/11 15:24:42;;;;;;;43.75;11.75;;;;;;;;;;4982171;28;19918;-91
2022/07/11 15:27:09;;;;;;;39.65;13.10;;;;;;;;;;4982378;28;20077;-92
2022/07/11 15:29:36;;;;;;;27.67;11.45;;;;;;;;;;4951533;28;20033;-89
2022/07/11 15:32:04;;;;;;;40.85;12.80;;;;;;;;;;4964803;28;20046;-89
2022/07/11 15:34:30;;;;;;;43.63;13.25;;;;;;;;;;4967409;28;20076;-90
2022/07/11 15:36:56;;;;;;;36.83;11.95;;;;;;;;;;4963867;28;20038;-89
2022/07/11 15:39:23;;;;;;;28.50;12.02;;;;;;;;;;4951845;28;20055;-91
2022/07/11 15:41:49;;;;;;;40.25;11.70;;;;;;;;;;4972158;28;20423;-87
2022/07/11 15:44:15;;;;;;;;;;;;;;;;;;4929269;28;20527;-88
2022/07/11 15:46:42;;;;;;;52.03;14.90;;;;;;;;;;4940521;28;19926;-88
2022/07/11 15:49:09;;;;;;;37.17;15.27;;;;;;;;;;4960233;28;20018;-88
2022/07/11 15:51:47;;;;;;;58.90;12.70;;;;;;;;;;4964520;28;20035;-88
2022/07/11 15:54:14;;;;;;;82.93;14.10;;;;;;;;;;4960919;28;20054;-87
2022/07/11 15:56:40;;;;;;;79.85;14.50;;;;;;;;;;4977912;28;20038;-86
2022/07/11 15:59:07;;;;;;;47.03;12.07;;;;;;;;;;4944879;28;20038;-86
2022/07/11 16:01:39;;;;;;;39.67;12.05;;;;;;;;;;4978312;28;20065;-86
2022/07/11 16:04:05;;;;;;;49.97;14.52;;;;;;;;;;4976819;28;20121;-86
2022/07/11 16:06:33;;;;;;;45.78;12.38;;;;;;;;;;4960614;28;20069;-86
2022/07/11 16:08:59;;;;;;;55.72;12.70;;;;;;;;;;4941562;29;20042;-85
2022/07/11 16:11:29;;;;;;;51.35;12.95;;;;;;;;;;4925182;29;20151;-84
2022/07/11 16:13:56;;;;;;;61.78;13.60;;;;;;;;;;4962914;28;20493;-86
2022/07/11 16:16:22;;;;;;;66.72;15.35;;;;;;;;;;4951394;28;20078;-87
2022/07/11 16:18:50;;;;;;;114.55;16.55;;;;;;;;;;4962448;28;20131;-86